sensor_id;sensor_type;location;lat;lon;timestamp;P1;durP1;ratioP1;P2;durP2;ratioP2
31746;SDS011;18319;48.974;8.462;2023-06-22T00:00:10;5.40;;;4.93;;
31746;SDS011;18319;48.974;8.462;2023-06-22T00:02:37;4.35;;;4.03;;
31746;SDS011;18319;48.974;8.462;2023-06-22T00:05:06;7.30;;;4.55;;
31746;SDS011;18319;48.974;8.462;2023-06-22T00:07:33;5.43;;;4.95;;
31746;SDS011;18319;48.974;8.462;2023-06-22T00:09:59;5.47;;;4.60;;
31746;SDS011;18319;48.974;8.462;2023-06-22T00:12:26;5.28;;;4.85;;
31746;SDS011;18319;48.974;8.462;2023-06-22T00:14:53;5.38;;;4.65;;
31746;SDS011;18319;48.974;8.462;2023-06-22T00:17:20;5.25;;;4.82;;
31746;SDS011;18319;48.974;8.462;2023-06-22T00:19:46;5.45;;;4.75;;
31746;SDS011;18319;48.974;8.462;2023-06-22T00:22:19;5.65;;;5.13;;
31746;SDS011;18319;48.974;8.462;2023-06-22T00:24:53;7.10;;;4.85;;
31746;SDS011;18319;48.974;8.462;2023-06-22T00:27:19;5.00;;;4.60;;
31746;SDS011;18319;48.974;8.462;2023-06-22T00:29:46;5.43;;;4.93;;
31746;SDS011;18319;48.974;8.462;2023-06-22T00:32:13;5.60;;;5.10;;
31746;SDS011;18319;48.974;8.462;2023-06-22T00:34:41;5.03;;;4.63;;
31746;SDS011;18319;48.974;8.462;2023-06-22T00:37:07;8.38;;;4.90;;
31746;SDS011;18319;48.974;8.462;2023-06-22T00:39:37;16.75;;;7.28;;
31746;SDS011;18319;48.974;8.462;2023-06-22T00:42:04;12.85;;;6.45;;
31746;SDS011;18319;48.974;8.462;2023-06-22T00:44:31;10.77;;;6.70;;
31746;SDS011;18319;48.974;8.462;2023-06-22T00:46:58;8.23;;;6.00;;
31746;SDS011;18319;48.974;8.462;2023-06-22T00:49:26;10.15;;;6.07;;
31746;SDS011;18319;48.974;8.462;2023-06-22T00:51:53;10.57;;;6.55;;
31746;SDS011;18319;48.974;8.462;2023-06-22T00:54:19;7.50;;;6.20;;
31746;SDS011;18319;48.974;8.462;2023-06-22T00:56:51;8.45;;;6.15;;
31746;SDS011;18319;48.974;8.462;2023-06-22T00:59:20;7.30;;;6.60;;
31746;SDS011;18319;48.974;8.462;2023-06-22T01:01:46;7.20;;;6.55;;
31746;SDS011;18319;48.974;8.462;2023-06-22T01:04:13;7.25;;;6.57;;
31746;SDS011;18319;48.974;8.462;2023-06-22T01:06:45;9.75;;;6.60;;
31746;SDS011;18319;48.974;8.462;2023-06-22T01:09:17;8.40;;;6.85;;
31746;SDS011;18319;48.974;8.462;2023-06-22T01:11:49;7.35;;;6.43;;
31746;SDS011;18319;48.974;8.462;2023-06-22T01:14:20;7.05;;;6.35;;
31746;SDS011;18319;48.974;8.462;2023-06-22T01:16:54;6.43;;;5.53;;
31746;SDS011;18319;48.974;8.462;2023-06-22T01:19:29;8.00;;;6.50;;
31746;SDS011;18319;48.974;8.462;2023-06-22T01:22:02;8.52;;;6.28;;
31746;SDS011;18319;48.974;8.462;2023-06-22T01:24:32;7.25;;;6.53;;
31746;SDS011;18319;48.974;8.462;2023-06-22T01:27:14;7.95;;;6.03;;
31746;SDS011;18319;48.974;8.462;2023-06-22T01:29:51;8.65;;;6.68;;
31746;SDS011;18319;48.974;8.462;2023-06-22T01:32:25;8.02;;;6.50;;
31746;SDS011;18319;48.974;8.462;2023-06-22T01:34:53;8.07;;;5.85;;
31746;SDS011;18319;48.974;8.462;2023-06-22T01:37:20;7.20;;;5.85;;
31746;SDS011;18319;48.974;8.462;2023-06-22T01:39:47;6.65;;;6.10;;
31746;SDS011;18319;48.974;8.462;2023-06-22T01:42:14;6.93;;;6.28;;
31746;SDS011;18319;48.974;8.462;2023-06-22T01:44:42;6.38;;;5.85;;
31746;SDS011;18319;48.974;8.462;2023-06-22T01:47:10;7.55;;;6.85;;
31746;SDS011;18319;48.974;8.462;2023-06-22T01:49:38;7.03;;;6.28;;
31746;SDS011;18319;48.974;8.462;2023-06-22T01:52:06;6.82;;;6.00;;
31746;SDS011;18319;48.974;8.462;2023-06-22T01:54:33;7.90;;;6.20;;
31746;SDS011;18319;48.974;8.462;2023-06-22T01:57:00;7.10;;;6.10;;
31746;SDS011;18319;48.974;8.462;2023-06-22T01:59:28;7.82;;;6.15;;
31746;SDS011;18319;48.974;8.462;2023-06-22T02:02:01;8.02;;;6.85;;
31746;SDS011;18319;48.974;8.462;2023-06-22T02:04:34;8.23;;;7.10;;
31746;SDS011;18319;48.974;8.462;2023-06-22T02:07:12;6.55;;;6.05;;
31746;SDS011;18319;48.974;8.462;2023-06-22T02:09:42;8.63;;;6.38;;
31746;SDS011;18319;48.974;8.462;2023-06-22T02:12:11;7.25;;;6.55;;
31746;SDS011;18319;48.974;8.462;2023-06-22T02:14:39;7.18;;;6.47;;
31746;SDS011;18319;48.974;8.462;2023-06-22T02:17:07;7.88;;;6.50;;
31746;SDS011;18319;48.974;8.462;2023-06-22T02:19:37;8.75;;;6.32;;
31746;SDS011;18319;48.974;8.462;2023-06-22T02:22:04;7.50;;;6.80;;
31746;SDS011;18319;48.974;8.462;2023-06-22T02:24:31;8.00;;;7.20;;
31746;SDS011;18319;48.974;8.462;2023-06-22T02:26:58;9.32;;;7.18;;
31746;SDS011;18319;48.974;8.462;2023-06-22T02:29:26;7.88;;;7.10;;
31746;SDS011;18319;48.974;8.462;2023-06-22T02:31:53;8.63;;;7.57;;
31746;SDS011;18319;48.974;8.462;2023-06-22T02:34:20;9.23;;;8.23;;
31746;SDS011;18319;48.974;8.462;2023-06-22T02:36:48;8.55;;;7.03;;
31746;SDS011;18319;48.974;8.462;2023-06-22T02:39:17;7.13;;;6.53;;
31746;SDS011;18319;48.974;8.462;2023-06-22T02:41:45;9.02;;;6.75;;
31746;SDS011;18319;48.974;8.462;2023-06-22T02:44:12;8.10;;;7.15;;
31746;SDS011;18319;48.974;8.462;2023-06-22T02:46:38;7.93;;;7.13;;
31746;SDS011;18319;48.974;8.462;2023-06-22T02:49:05;9.18;;;8.27;;
31746;SDS011;18319;48.974;8.462;2023-06-22T02:51:32;9.23;;;7.28;;
31746;SDS011;18319;48.974;8.462;2023-06-22T02:54:02;7.60;;;6.95;;
31746;SDS011;18319;48.974;8.462;2023-06-22T02:56:29;8.75;;;7.85;;
31746;SDS011;18319;48.974;8.462;2023-06-22T02:58:55;11.20;;;7.63;;
31746;SDS011;18319;48.974;8.462;2023-06-22T03:01:25;8.60;;;7.70;;
31746;SDS011;18319;48.974;8.462;2023-06-22T03:03:52;7.10;;;6.40;;
31746;SDS011;18319;48.974;8.462;2023-06-22T03:06:19;8.13;;;6.55;;
31746;SDS011;18319;48.974;8.462;2023-06-22T03:08:48;8.02;;;7.13;;
31746;SDS011;18319;48.974;8.462;2023-06-22T03:11:17;7.78;;;6.97;;
31746;SDS011;18319;48.974;8.462;2023-06-22T03:13:44;8.00;;;6.63;;
31746;SDS011;18319;48.974;8.462;2023-06-22T03:16:11;7.70;;;6.90;;
31746;SDS011;18319;48.974;8.462;2023-06-22T03:18:39;7.88;;;6.65;;
31746;SDS011;18319;48.974;8.462;2023-06-22T03:21:06;9.10;;;7.00;;
31746;SDS011;18319;48.974;8.462;2023-06-22T03:23:32;7.35;;;6.70;;
31746;SDS011;18319;48.974;8.462;2023-06-22T03:25:59;8.13;;;7.35;;
31746;SDS011;18319;48.974;8.462;2023-06-22T03:28:27;9.00;;;7.70;;
31746;SDS011;18319;48.974;8.462;2023-06-22T03:30:54;8.20;;;7.05;;
31746;SDS011;18319;48.974;8.462;2023-06-22T03:33:23;9.93;;;7.47;;
31746;SDS011;18319;48.974;8.462;2023-06-22T03:35:49;8.80;;;7.70;;
31746;SDS011;18319;48.974;8.462;2023-06-22T03:38:16;8.55;;;7.45;;
31746;SDS011;18319;48.974;8.462;2023-06-22T03:40:43;8.25;;;7.05;;
31746;SDS011;18319;48.974;8.462;2023-06-22T03:43:10;8.02;;;7.22;;
31746;SDS011;18319;48.974;8.462;2023-06-22T03:45:38;9.15;;;7.68;;
31746;SDS011;18319;48.974;8.462;2023-06-22T03:48:06;9.57;;;7.65;;
31746;SDS011;18319;48.974;8.462;2023-06-22T03:50:32;9.80;;;6.95;;
31746;SDS011;18319;48.974;8.462;2023-06-22T03:52:59;7.75;;;7.07;;
31746;SDS011;18319;48.974;8.462;2023-06-22T03:55:26;10.18;;;6.80;;
31746;SDS011;18319;48.974;8.462;2023-06-22T03:57:53;9.88;;;8.02;;
31746;SDS011;18319;48.974;8.462;2023-06-22T04:00:22;8.00;;;7.20;;
31746;SDS011;18319;48.974;8.462;2023-06-22T04:02:50;8.95;;;6.97;;
31746;SDS011;18319;48.974;8.462;2023-06-22T04:05:16;8.18;;;7.47;;
31746;SDS011;18319;48.974;8.462;2023-06-22T04:07:44;8.35;;;7.45;;
31746;SDS011;18319;48.974;8.462;2023-06-22T04:10:10;8.93;;;7.25;;
31746;SDS011;18319;48.974;8.462;2023-06-22T04:12:37;8.93;;;7.53;;
31746;SDS011;18319;48.974;8.462;2023-06-22T04:15:04;12.32;;;7.03;;
31746;SDS011;18319;48.974;8.462;2023-06-22T04:17:32;10.25;;;7.22;;
31746;SDS011;18319;48.974;8.462;2023-06-22T04:20:00;7.32;;;6.68;;
31746;SDS011;18319;48.974;8.462;2023-06-22T04:22:27;11.52;;;7.47;;
31746;SDS011;18319;48.974;8.462;2023-06-22T04:24:54;7.97;;;7.22;;
31746;SDS011;18319;48.974;8.462;2023-06-22T04:27:20;8.75;;;7.47;;
31746;SDS011;18319;48.974;8.462;2023-06-22T04:29:48;9.63;;;7.63;;
31746;SDS011;18319;48.974;8.462;2023-06-22T04:32:16;8.85;;;8.02;;
31746;SDS011;18319;48.974;8.462;2023-06-22T04:34:43;10.77;;;7.95;;
31746;SDS011;18319;48.974;8.462;2023-06-22T04:37:11;8.52;;;7.53;;
31746;SDS011;18319;48.974;8.462;2023-06-22T04:39:40;9.32;;;7.93;;
31746;SDS011;18319;48.974;8.462;2023-06-22T04:42:07;8.07;;;7.38;;
31746;SDS011;18319;48.974;8.462;2023-06-22T04:44:34;9.02;;;8.15;;
31746;SDS011;18319;48.974;8.462;2023-06-22T04:47:01;8.57;;;7.55;;
31746;SDS011;18319;48.974;8.462;2023-06-22T04:49:29;10.93;;;7.80;;
31746;SDS011;18319;48.974;8.462;2023-06-22T04:51:59;11.43;;;8.15;;
31746;SDS011;18319;48.974;8.462;2023-06-22T04:54:28;8.10;;;7.35;;
31746;SDS011;18319;48.974;8.462;2023-06-22T04:56:57;10.00;;;7.95;;
31746;SDS011;18319;48.974;8.462;2023-06-22T04:59:24;12.30;;;7.63;;
31746;SDS011;18319;48.974;8.462;2023-06-22T05:01:54;8.45;;;7.38;;
31746;SDS011;18319;48.974;8.462;2023-06-22T05:04:23;9.70;;;8.55;;
31746;SDS011;18319;48.974;8.462;2023-06-22T05:06:50;10.02;;;8.10;;
31746;SDS011;18319;48.974;8.462;2023-06-22T05:09:17;9.15;;;8.25;;
31746;SDS011;18319;48.974;8.462;2023-06-22T05:11:45;9.05;;;7.80;;
31746;SDS011;18319;48.974;8.462;2023-06-22T05:14:12;8.95;;;7.72;;
31746;SDS011;18319;48.974;8.462;2023-06-22T05:16:41;9.13;;;7.32;;
31746;SDS011;18319;48.974;8.462;2023-06-22T05:19:08;10.38;;;7.60;;
31746;SDS011;18319;48.974;8.462;2023-06-22T05:21:35;9.40;;;7.40;;
31746;SDS011;18319;48.974;8.462;2023-06-22T05:24:02;11.00;;;8.15;;
31746;SDS011;18319;48.974;8.462;2023-06-22T05:26:29;8.75;;;7.70;;
31746;SDS011;18319;48.974;8.462;2023-06-22T05:28:58;7.30;;;6.60;;
31746;SDS011;18319;48.974;8.462;2023-06-22T05:31:26;10.75;;;7.80;;
31746;SDS011;18319;48.974;8.462;2023-06-22T05:33:53;9.07;;;8.18;;
31746;SDS011;18319;48.974;8.462;2023-06-22T05:36:21;9.02;;;8.07;;
31746;SDS011;18319;48.974;8.462;2023-06-22T05:38:50;8.85;;;7.70;;
31746;SDS011;18319;48.974;8.462;2023-06-22T05:41:17;9.20;;;7.97;;
31746;SDS011;18319;48.974;8.462;2023-06-22T05:43:43;11.85;;;8.30;;
31746;SDS011;18319;48.974;8.462;2023-06-22T05:46:11;9.25;;;7.35;;
31746;SDS011;18319;48.974;8.462;2023-06-22T05:48:38;10.02;;;8.63;;
31746;SDS011;18319;48.974;8.462;2023-06-22T05:51:05;7.93;;;7.13;;
31746;SDS011;18319;48.974;8.462;2023-06-22T05:53:32;11.43;;;7.93;;
31746;SDS011;18319;48.974;8.462;2023-06-22T05:55:58;9.93;;;7.60;;
31746;SDS011;18319;48.974;8.462;2023-06-22T05:58:25;9.15;;;8.05;;
31746;SDS011;18319;48.974;8.462;2023-06-22T06:00:52;12.38;;;7.70;;
31746;SDS011;18319;48.974;8.462;2023-06-22T06:03:20;8.23;;;7.40;;
31746;SDS011;18319;48.974;8.462;2023-06-22T06:05:47;8.85;;;7.30;;
31746;SDS011;18319;48.974;8.462;2023-06-22T06:08:14;7.97;;;7.28;;
31746;SDS011;18319;48.974;8.462;2023-06-22T06:10:41;8.45;;;7.63;;
31746;SDS011;18319;48.974;8.462;2023-06-22T06:13:08;8.27;;;6.60;;
31746;SDS011;18319;48.974;8.462;2023-06-22T06:15:35;10.73;;;7.25;;
31746;SDS011;18319;48.974;8.462;2023-06-22T06:18:01;6.72;;;6.03;;
31746;SDS011;18319;48.974;8.462;2023-06-22T06:20:31;7.85;;;6.88;;
31746;SDS011;18319;48.974;8.462;2023-06-22T06:22:58;7.75;;;6.45;;
31746;SDS011;18319;48.974;8.462;2023-06-22T06:25:25;9.13;;;6.65;;
31746;SDS011;18319;48.974;8.462;2023-06-22T06:27:52;8.88;;;8.00;;
31746;SDS011;18319;48.974;8.462;2023-06-22T06:30:20;7.28;;;6.60;;
31746;SDS011;18319;48.974;8.462;2023-06-22T06:32:47;7.65;;;6.68;;
31746;SDS011;18319;48.974;8.462;2023-06-22T06:35:14;7.40;;;6.63;;
31746;SDS011;18319;48.974;8.462;2023-06-22T06:37:44;7.90;;;7.10;;
31746;SDS011;18319;48.974;8.462;2023-06-22T06:40:12;7.63;;;6.05;;
31746;SDS011;18319;48.974;8.462;2023-06-22T06:42:41;8.85;;;6.75;;
31746;SDS011;18319;48.974;8.462;2023-06-22T06:45:10;6.70;;;6.10;;
31746;SDS011;18319;48.974;8.462;2023-06-22T06:47:38;8.27;;;6.35;;
31746;SDS011;18319;48.974;8.462;2023-06-22T06:50:05;6.75;;;6.03;;
31746;SDS011;18319;48.974;8.462;2023-06-22T06:52:33;8.00;;;6.88;;
31746;SDS011;18319;48.974;8.462;2023-06-22T06:55:01;6.70;;;5.78;;
31746;SDS011;18319;48.974;8.462;2023-06-22T06:57:30;7.20;;;6.10;;
31746;SDS011;18319;48.974;8.462;2023-06-22T06:59:58;10.00;;;6.88;;
31746;SDS011;18319;48.974;8.462;2023-06-22T07:02:27;7.60;;;6.22;;
31746;SDS011;18319;48.974;8.462;2023-06-22T07:04:54;6.82;;;6.22;;
31746;SDS011;18319;48.974;8.462;2023-06-22T07:07:21;6.93;;;5.65;;
31746;SDS011;18319;48.974;8.462;2023-06-22T07:09:48;6.53;;;5.93;;
31746;SDS011;18319;48.974;8.462;2023-06-22T07:12:16;7.43;;;6.75;;
31746;SDS011;18319;48.974;8.462;2023-06-22T07:14:43;7.22;;;6.47;;
31746;SDS011;18319;48.974;8.462;2023-06-22T07:17:09;7.53;;;6.55;;
31746;SDS011;18319;48.974;8.462;2023-06-22T07:19:36;9.25;;;6.35;;
31746;SDS011;18319;48.974;8.462;2023-06-22T07:22:04;7.85;;;6.22;;
31746;SDS011;18319;48.974;8.462;2023-06-22T07:24:31;9.38;;;6.68;;
31746;SDS011;18319;48.974;8.462;2023-06-22T07:26:58;7.00;;;6.32;;
31746;SDS011;18319;48.974;8.462;2023-06-22T07:29:26;9.05;;;6.22;;
31746;SDS011;18319;48.974;8.462;2023-06-22T07:31:53;7.38;;;6.50;;
31746;SDS011;18319;48.974;8.462;2023-06-22T07:34:21;7.07;;;6.30;;
31746;SDS011;18319;48.974;8.462;2023-06-22T07:36:48;8.77;;;6.05;;
31746;SDS011;18319;48.974;8.462;2023-06-22T07:39:15;6.95;;;5.88;;
31746;SDS011;18319;48.974;8.462;2023-06-22T07:41:42;6.78;;;6.18;;
31746;SDS011;18319;48.974;8.462;2023-06-22T07:44:09;8.50;;;6.65;;
31746;SDS011;18319;48.974;8.462;2023-06-22T07:46:37;12.27;;;6.28;;
31746;SDS011;18319;48.974;8.462;2023-06-22T07:49:03;9.05;;;5.80;;
31746;SDS011;18319;48.974;8.462;2023-06-22T07:51:30;6.93;;;6.13;;
31746;SDS011;18319;48.974;8.462;2023-06-22T07:53:57;6.45;;;5.53;;
31746;SDS011;18319;48.974;8.462;2023-06-22T07:56:23;6.38;;;5.88;;
31746;SDS011;18319;48.974;8.462;2023-06-22T07:58:50;6.25;;;5.65;;
31746;SDS011;18319;48.974;8.462;2023-06-22T08:01:18;9.63;;;5.88;;
31746;SDS011;18319;48.974;8.462;2023-06-22T08:03:47;6.07;;;5.57;;
31746;SDS011;18319;48.974;8.462;2023-06-22T08:06:14;5.70;;;5.18;;
31746;SDS011;18319;48.974;8.462;2023-06-22T08:08:43;6.10;;;5.50;;
31746;SDS011;18319;48.974;8.462;2023-06-22T08:11:13;5.90;;;4.80;;
31746;SDS011;18319;48.974;8.462;2023-06-22T08:13:39;6.30;;;5.70;;
31746;SDS011;18319;48.974;8.462;2023-06-22T08:16:06;7.95;;;5.63;;
31746;SDS011;18319;48.974;8.462;2023-06-22T08:18:33;7.10;;;5.85;;
31746;SDS011;18319;48.974;8.462;2023-06-22T08:21:01;6.88;;;4.82;;
31746;SDS011;18319;48.974;8.462;2023-06-22T08:23:28;6.13;;;4.93;;
31746;SDS011;18319;48.974;8.462;2023-06-22T08:25:55;7.20;;;4.57;;
31746;SDS011;18319;48.974;8.462;2023-06-22T08:28:22;6.85;;;4.65;;
31746;SDS011;18319;48.974;8.462;2023-06-22T08:30:48;8.93;;;4.93;;
31746;SDS011;18319;48.974;8.462;2023-06-22T08:33:15;5.80;;;5.15;;
31746;SDS011;18319;48.974;8.462;2023-06-22T08:35:48;7.97;;;4.55;;
31746;SDS011;18319;48.974;8.462;2023-06-22T08:38:16;6.65;;;5.60;;
31746;SDS011;18319;48.974;8.462;2023-06-22T08:40:43;5.20;;;4.70;;
31746;SDS011;18319;48.974;8.462;2023-06-22T08:43:10;6.75;;;4.80;;
31746;SDS011;18319;48.974;8.462;2023-06-22T08:45:37;6.70;;;5.63;;
31746;SDS011;18319;48.974;8.462;2023-06-22T08:48:04;6.90;;;5.10;;
31746;SDS011;18319;48.974;8.462;2023-06-22T08:50:31;6.35;;;5.20;;
31746;SDS011;18319;48.974;8.462;2023-06-22T08:52:58;5.68;;;4.65;;
31746;SDS011;18319;48.974;8.462;2023-06-22T08:55:26;5.82;;;5.20;;
31746;SDS011;18319;48.974;8.462;2023-06-22T08:57:52;4.85;;;4.55;;
31746;SDS011;18319;48.974;8.462;2023-06-22T09:00:20;5.18;;;4.88;;
31746;SDS011;18319;48.974;8.462;2023-06-22T09:02:47;5.93;;;5.05;;
31746;SDS011;18319;48.974;8.462;2023-06-22T09:05:14;5.28;;;4.78;;
31746;SDS011;18319;48.974;8.462;2023-06-22T09:07:41;6.93;;;5.35;;
31746;SDS011;18319;48.974;8.462;2023-06-22T09:10:08;7.55;;;4.63;;
31746;SDS011;18319;48.974;8.462;2023-06-22T09:12:36;5.63;;;4.90;;
31746;SDS011;18319;48.974;8.462;2023-06-22T09:15:04;5.78;;;4.50;;
31746;SDS011;18319;48.974;8.462;2023-06-22T09:17:32;4.97;;;4.53;;
31746;SDS011;18319;48.974;8.462;2023-06-22T09:20:00;5.45;;;5.00;;
31746;SDS011;18319;48.974;8.462;2023-06-22T09:22:30;5.22;;;4.70;;
31746;SDS011;18319;48.974;8.462;2023-06-22T09:24:57;6.28;;;4.82;;
31746;SDS011;18319;48.974;8.462;2023-06-22T09:27:25;6.07;;;4.78;;
31746;SDS011;18319;48.974;8.462;2023-06-22T09:29:54;8.77;;;4.55;;
31746;SDS011;18319;48.974;8.462;2023-06-22T09:32:20;5.15;;;4.75;;
31746;SDS011;18319;48.974;8.462;2023-06-22T09:34:47;5.35;;;4.68;;
31746;SDS011;18319;48.974;8.462;2023-06-22T09:37:14;7.60;;;5.07;;
31746;SDS011;18319;48.974;8.462;2023-06-22T09:39:42;6.70;;;4.72;;
31746;SDS011;18319;48.974;8.462;2023-06-22T09:42:11;5.82;;;5.30;;
31746;SDS011;18319;48.974;8.462;2023-06-22T09:44:38;5.35;;;4.68;;
31746;SDS011;18319;48.974;8.462;2023-06-22T09:47:07;5.78;;;4.45;;
31746;SDS011;18319;48.974;8.462;2023-06-22T09:49:34;4.80;;;4.40;;
31746;SDS011;18319;48.974;8.462;2023-06-22T09:52:00;5.38;;;4.95;;
31746;SDS011;18319;48.974;8.462;2023-06-22T09:54:27;6.10;;;4.80;;
31746;SDS011;18319;48.974;8.462;2023-06-22T09:56:54;7.05;;;5.28;;
31746;SDS011;18319;48.974;8.462;2023-06-22T09:59:20;5.63;;;4.50;;
31746;SDS011;18319;48.974;8.462;2023-06-22T10:01:47;6.55;;;5.00;;
31746;SDS011;18319;48.974;8.462;2023-06-22T10:04:15;5.90;;;5.00;;
31746;SDS011;18319;48.974;8.462;2023-06-22T10:06:42;6.03;;;5.50;;
31746;SDS011;18319;48.974;8.462;2023-06-22T10:09:09;7.18;;;5.68;;
31746;SDS011;18319;48.974;8.462;2023-06-22T10:11:35;8.80;;;5.90;;
31746;SDS011;18319;48.974;8.462;2023-06-22T10:14:03;4.93;;;4.43;;
31746;SDS011;18319;48.974;8.462;2023-06-22T10:16:30;5.20;;;4.18;;
31746;SDS011;18319;48.974;8.462;2023-06-22T10:18:57;7.90;;;5.03;;
31746;SDS011;18319;48.974;8.462;2023-06-22T10:21:25;6.60;;;4.70;;
31746;SDS011;18319;48.974;8.462;2023-06-22T10:23:53;6.53;;;4.75;;
31746;SDS011;18319;48.974;8.462;2023-06-22T10:26:20;6.25;;;4.70;;
31746;SDS011;18319;48.974;8.462;2023-06-22T10:28:47;7.88;;;5.05;;
31746;SDS011;18319;48.974;8.462;2023-06-22T10:31:13;7.15;;;4.88;;
31746;SDS011;18319;48.974;8.462;2023-06-22T10:33:41;6.18;;;4.90;;
31746;SDS011;18319;48.974;8.462;2023-06-22T10:36:09;6.47;;;5.10;;
31746;SDS011;18319;48.974;8.462;2023-06-22T10:38:37;5.53;;;4.32;;
31746;SDS011;18319;48.974;8.462;2023-06-22T10:41:04;7.00;;;5.18;;
31746;SDS011;18319;48.974;8.462;2023-06-22T10:43:30;5.40;;;4.90;;
31746;SDS011;18319;48.974;8.462;2023-06-22T10:45:57;5.32;;;4.50;;
31746;SDS011;18319;48.974;8.462;2023-06-22T10:48:24;6.63;;;5.05;;
31746;SDS011;18319;48.974;8.462;2023-06-22T10:50:51;5.03;;;4.53;;
31746;SDS011;18319;48.974;8.462;2023-06-22T10:53:18;5.57;;;5.03;;
31746;SDS011;18319;48.974;8.462;2023-06-22T10:55:46;6.10;;;5.22;;
31746;SDS011;18319;48.974;8.462;2023-06-22T10:58:13;7.63;;;5.30;;
31746;SDS011;18319;48.974;8.462;2023-06-22T11:00:39;5.47;;;4.82;;
31746;SDS011;18319;48.974;8.462;2023-06-22T11:03:06;5.28;;;4.72;;
31746;SDS011;18319;48.974;8.462;2023-06-22T11:05:33;8.35;;;5.20;;
31746;SDS011;18319;48.974;8.462;2023-06-22T11:08:00;8.15;;;5.55;;
31746;SDS011;18319;48.974;8.462;2023-06-22T11:10:26;5.28;;;4.78;;
31746;SDS011;18319;48.974;8.462;2023-06-22T11:12:54;7.55;;;5.00;;
31746;SDS011;18319;48.974;8.462;2023-06-22T11:15:22;7.50;;;4.72;;
31746;SDS011;18319;48.974;8.462;2023-06-22T11:17:49;5.28;;;4.88;;
31746;SDS011;18319;48.974;8.462;2023-06-22T11:20:16;6.05;;;5.45;;
31746;SDS011;18319;48.974;8.462;2023-06-22T11:22:43;6.85;;;4.60;;
31746;SDS011;18319;48.974;8.462;2023-06-22T11:25:10;6.85;;;4.82;;
31746;SDS011;18319;48.974;8.462;2023-06-22T11:27:37;6.40;;;5.15;;
31746;SDS011;18319;48.974;8.462;2023-06-22T11:30:06;5.63;;;4.70;;
31746;SDS011;18319;48.974;8.462;2023-06-22T11:32:34;6.28;;;5.65;;
31746;SDS011;18319;48.974;8.462;2023-06-22T11:35:01;8.35;;;5.60;;
31746;SDS011;18319;48.974;8.462;2023-06-22T11:37:27;7.28;;;5.72;;
31746;SDS011;18319;48.974;8.462;2023-06-22T11:39:54;6.00;;;5.40;;
31746;SDS011;18319;48.974;8.462;2023-06-22T11:42:21;5.93;;;5.05;;
31746;SDS011;18319;48.974;8.462;2023-06-22T11:44:48;5.18;;;4.57;;
31746;SDS011;18319;48.974;8.462;2023-06-22T11:47:16;8.23;;;5.53;;
31746;SDS011;18319;48.974;8.462;2023-06-22T11:49:43;11.23;;;5.20;;
31746;SDS011;18319;48.974;8.462;2023-06-22T11:52:10;6.05;;;5.38;;
31746;SDS011;18319;48.974;8.462;2023-06-22T11:54:37;5.85;;;4.63;;
31746;SDS011;18319;48.974;8.462;2023-06-22T11:57:04;8.30;;;5.55;;
31746;SDS011;18319;48.974;8.462;2023-06-22T11:59:30;10.68;;;5.50;;
31746;SDS011;18319;48.974;8.462;2023-06-22T12:01:57;6.75;;;5.60;;
31746;SDS011;18319;48.974;8.462;2023-06-22T12:04:27;6.22;;;5.28;;
31746;SDS011;18319;48.974;8.462;2023-06-22T12:06:54;7.38;;;5.25;;
31746;SDS011;18319;48.974;8.462;2023-06-22T12:09:21;6.38;;;5.88;;
31746;SDS011;18319;48.974;8.462;2023-06-22T12:11:48;6.28;;;5.00;;
31746;SDS011;18319;48.974;8.462;2023-06-22T12:14:14;5.20;;;4.70;;
31746;SDS011;18319;48.974;8.462;2023-06-22T12:16:41;6.53;;;5.80;;
31746;SDS011;18319;48.974;8.462;2023-06-22T12:19:09;6.15;;;5.28;;
31746;SDS011;18319;48.974;8.462;2023-06-22T12:21:38;6.03;;;5.53;;
31746;SDS011;18319;48.974;8.462;2023-06-22T12:24:05;8.98;;;5.53;;
31746;SDS011;18319;48.974;8.462;2023-06-22T12:26:32;9.50;;;5.35;;
31746;SDS011;18319;48.974;8.462;2023-06-22T12:28:59;6.05;;;5.55;;
31746;SDS011;18319;48.974;8.462;2023-06-22T12:31:26;9.40;;;5.78;;
31746;SDS011;18319;48.974;8.462;2023-06-22T12:33:52;7.78;;;5.30;;
31746;SDS011;18319;48.974;8.462;2023-06-22T12:36:19;6.10;;;5.50;;
31746;SDS011;18319;48.974;8.462;2023-06-22T12:38:47;7.03;;;5.57;;
31746;SDS011;18319;48.974;8.462;2023-06-22T12:41:14;5.82;;;5.22;;
31746;SDS011;18319;48.974;8.462;2023-06-22T12:43:41;7.65;;;5.88;;
31746;SDS011;18319;48.974;8.462;2023-06-22T12:46:07;7.45;;;5.07;;
31746;SDS011;18319;48.974;8.462;2023-06-22T12:48:34;10.45;;;5.32;;
31746;SDS011;18319;48.974;8.462;2023-06-22T12:51:06;9.85;;;5.15;;
31746;SDS011;18319;48.974;8.462;2023-06-22T12:53:33;9.93;;;5.75;;
31746;SDS011;18319;48.974;8.462;2023-06-22T12:56:01;7.45;;;5.43;;
31746;SDS011;18319;48.974;8.462;2023-06-22T12:58:28;6.10;;;5.50;;
31746;SDS011;18319;48.974;8.462;2023-06-22T13:00:55;9.35;;;4.95;;
31746;SDS011;18319;48.974;8.462;2023-06-22T13:03:21;6.80;;;5.68;;
31746;SDS011;18319;48.974;8.462;2023-06-22T13:05:50;6.82;;;5.32;;
31746;SDS011;18319;48.974;8.462;2023-06-22T13:08:16;11.32;;;5.32;;
31746;SDS011;18319;48.974;8.462;2023-06-22T13:10:43;9.93;;;5.43;;
31746;SDS011;18319;48.974;8.462;2023-06-22T13:13:11;7.00;;;5.28;;
31746;SDS011;18319;48.974;8.462;2023-06-22T13:15:38;9.57;;;5.78;;
31746;SDS011;18319;48.974;8.462;2023-06-22T13:18:05;13.23;;;5.63;;
31746;SDS011;18319;48.974;8.462;2023-06-22T13:20:32;7.88;;;6.18;;
31746;SDS011;18319;48.974;8.462;2023-06-22T13:22:58;6.70;;;5.90;;
31746;SDS011;18319;48.974;8.462;2023-06-22T13:25:25;7.00;;;5.90;;
31746;SDS011;18319;48.974;8.462;2023-06-22T13:27:52;8.77;;;5.78;;
31746;SDS011;18319;48.974;8.462;2023-06-22T13:30:20;6.63;;;5.90;;
31746;SDS011;18319;48.974;8.462;2023-06-22T13:32:47;7.93;;;5.65;;
31746;SDS011;18319;48.974;8.462;2023-06-22T13:35:14;7.93;;;5.15;;
31746;SDS011;18319;48.974;8.462;2023-06-22T13:37:40;7.75;;;5.50;;
31746;SDS011;18319;48.974;8.462;2023-06-22T13:40:08;6.47;;;5.63;;
31746;SDS011;18319;48.974;8.462;2023-06-22T13:42:35;8.13;;;6.40;;
31746;SDS011;18319;48.974;8.462;2023-06-22T13:45:02;12.18;;;6.38;;
31746;SDS011;18319;48.974;8.462;2023-06-22T13:47:30;7.25;;;6.03;;
31746;SDS011;18319;48.974;8.462;2023-06-22T13:49:57;9.82;;;5.97;;
31746;SDS011;18319;48.974;8.462;2023-06-22T13:52:24;6.50;;;6.00;;
31746;SDS011;18319;48.974;8.462;2023-06-22T13:54:51;6.93;;;6.22;;
31746;SDS011;18319;48.974;8.462;2023-06-22T13:57:18;8.00;;;6.07;;
31746;SDS011;18319;48.974;8.462;2023-06-22T13:59:44;5.97;;;5.38;;
31746;SDS011;18319;48.974;8.462;2023-06-22T14:02:11;6.78;;;6.07;;
31746;SDS011;18319;48.974;8.462;2023-06-22T14:04:40;9.90;;;6.05;;
31746;SDS011;18319;48.974;8.462;2023-06-22T14:07:06;7.85;;;7.00;;
31746;SDS011;18319;48.974;8.462;2023-06-22T14:09:33;8.10;;;5.82;;
31746;SDS011;18319;48.974;8.462;2023-06-22T14:12:02;7.93;;;5.97;;
31746;SDS011;18319;48.974;8.462;2023-06-22T14:14:30;7.68;;;5.57;;
31746;SDS011;18319;48.974;8.462;2023-06-22T14:16:57;10.27;;;5.85;;
31746;SDS011;18319;48.974;8.462;2023-06-22T14:19:23;7.80;;;6.10;;
31746;SDS011;18319;48.974;8.462;2023-06-22T14:21:52;7.75;;;6.13;;
31746;SDS011;18319;48.974;8.462;2023-06-22T14:24:18;12.63;;;6.40;;
31746;SDS011;18319;48.974;8.462;2023-06-22T14:26:45;7.13;;;6.43;;
31746;SDS011;18319;48.974;8.462;2023-06-22T14:29:12;6.88;;;6.10;;
31746;SDS011;18319;48.974;8.462;2023-06-22T14:31:38;8.43;;;6.35;;
31746;SDS011;18319;48.974;8.462;2023-06-22T14:34:05;6.70;;;6.00;;
31746;SDS011;18319;48.974;8.462;2023-06-22T14:36:32;10.63;;;6.25;;
31746;SDS011;18319;48.974;8.462;2023-06-22T14:39:00;9.95;;;6.63;;
31746;SDS011;18319;48.974;8.462;2023-06-22T14:41:27;7.40;;;6.07;;
31746;SDS011;18319;48.974;8.462;2023-06-22T14:43:55;12.43;;;6.30;;
31746;SDS011;18319;48.974;8.462;2023-06-22T14:46:22;7.57;;;5.90;;